createdAt,value
2023-01-09T00:02:36.991Z,5.30
2023-01-09T00:06:43.275Z,5.72
2023-01-09T00:10:46.232Z,6.28
2023-01-09T00:14:49.219Z,5.78
2023-01-09T00:18:53.624Z,6.07
2023-01-09T00:22:56.564Z,5.97
2023-01-09T00:26:59.519Z,7.03
2023-01-09T00:31:04.124Z,6.60
2023-01-09T00:35:11.022Z,6.28
2023-01-09T00:39:13.904Z,7.00
2023-01-09T00:43:17.475Z,6.32
2023-01-09T00:47:24.144Z,7.03
2023-01-09T00:51:28.875Z,6.25
2023-01-09T00:55:31.928Z,6.68
2023-01-09T00:59:34.874Z,6.65
2023-01-09T01:03:37.756Z,6.68
2023-01-09T01:07:42.733Z,6.45
2023-01-09T01:11:45.663Z,6.75
2023-01-09T01:15:48.728Z,6.85
2023-01-09T01:19:51.733Z,6.38
2023-01-09T01:23:56.014Z,6.57
2023-01-09T01:27:58.972Z,5.95
2023-01-09T01:32:01.912Z,6.43
2023-01-09T01:36:07.413Z,6.70
2023-01-09T01:40:13.256Z,6.40
2023-01-09T01:44:53.320Z,5.93
2023-01-09T01:49:02.145Z,5.65
2023-01-09T01:53:13.805Z,4.65
2023-01-09T01:57:18.115Z,4.47
2023-01-09T02:01:21.987Z,4.05
2023-01-09T02:05:24.980Z,4.22
2023-01-09T02:09:28.071Z,4.05
2023-01-09T02:13:33.766Z,4.25
2023-01-09T02:18:02.526Z,4.40
2023-01-09T02:22:13.487Z,4.28
2023-01-09T02:26:55.533Z,3.92
2023-01-09T02:31:04.874Z,3.75
2023-01-09T02:35:17.706Z,3.88
2023-01-09T02:39:30.223Z,3.92
2023-01-09T02:43:33.617Z,4.40
2023-01-09T02:47:41.098Z,3.90
2023-01-09T02:51:52.932Z,4.30
2023-01-09T02:56:06.852Z,4.00
2023-01-09T03:00:18.220Z,3.58
2023-01-09T03:04:31.535Z,4.03
2023-01-09T03:08:39.103Z,4.20
2023-01-09T03:12:44.018Z,4.80
2023-01-09T03:16:49.826Z,3.97
2023-01-09T03:20:56.089Z,3.70
2023-01-09T03:24:58.910Z,3.47
2023-01-09T03:29:02.213Z,3.30
2023-01-09T03:33:05.323Z,3.20
2023-01-09T03:37:09.616Z,3.83
2023-01-09T03:41:12.479Z,2.95
2023-01-09T03:45:15.603Z,3.25
2023-01-09T03:49:19.147Z,3.03
2023-01-09T03:53:25.117Z,2.88
2023-01-09T03:57:27.958Z,3.08
2023-01-09T04:01:30.868Z,3.00
2023-01-09T04:05:33.987Z,2.70
2023-01-09T04:09:38.487Z,2.28
2023-01-09T04:13:41.368Z,2.15
2023-01-09T04:17:44.284Z,1.73
2023-01-09T04:21:47.056Z,1.75
2023-01-09T04:25:51.274Z,1.38
2023-01-09T04:29:55.091Z,1.33
2023-01-09T04:33:57.903Z,1.00
2023-01-09T04:38:01.270Z,0.63
2023-01-09T04:42:05.568Z,0.98
2023-01-09T04:46:08.458Z,0.40
2023-01-09T04:50:12.630Z,0.70
2023-01-09T04:54:15.578Z,0.30
2023-01-09T04:58:19.851Z,0.30
2023-01-09T05:02:22.723Z,0.20
2023-01-09T05:06:25.679Z,0.20
2023-01-09T05:10:28.914Z,0.25
2023-01-09T05:14:33.289Z,0.28
2023-01-09T05:18:36.334Z,0.35
2023-01-09T05:22:39.092Z,0.20
2023-01-09T05:26:41.901Z,0.22
2023-01-09T05:30:46.191Z,0.40
2023-01-09T05:34:49.051Z,0.20
2023-01-09T05:38:51.851Z,0.20
2023-01-09T05:42:54.691Z,0.10
2023-01-09T05:46:59.486Z,0.32
2023-01-09T05:51:03.348Z,0.05
2023-01-09T05:55:07.484Z,0.10
2023-01-09T05:59:10.495Z,0.17
2023-01-09T06:03:14.784Z,0.20
2023-01-09T06:07:21.007Z,0.20
2023-01-09T06:11:24.674Z,0.10
2023-01-09T06:15:27.601Z,0.20
2023-01-09T06:19:31.777Z,0.00
2023-01-09T06:23:34.671Z,0.10
2023-01-09T06:27:37.556Z,0.00
2023-01-09T06:31:40.391Z,0.10
2023-01-09T06:35:44.940Z,0.10
2023-01-09T06:39:48.133Z,0.15
2023-01-09T06:43:50.995Z,0.10
2023-01-09T06:47:53.830Z,0.05
2023-01-09T06:51:58.286Z,0.10
2023-01-09T06:56:02.258Z,0.10
2023-01-09T07:00:06.233Z,0.00
2023-01-09T07:04:10.238Z,0.00
2023-01-09T07:08:15.366Z,0.10
2023-01-09T07:12:18.251Z,0.00
2023-01-09T07:16:21.217Z,0.00
2023-01-09T07:20:24.227Z,0.00
2023-01-09T07:24:28.438Z,0.20
2023-01-09T07:28:31.341Z,0.08
2023-01-09T07:32:34.638Z,0.10
2023-01-09T07:36:37.513Z,0.13
2023-01-09T07:40:41.800Z,0.10
2023-01-09T07:44:44.751Z,0.10
2023-01-09T07:48:48.967Z,0.00
2023-01-09T07:52:51.804Z,0.17
2023-01-09T07:56:56.108Z,0.10
2023-01-09T08:00:59.047Z,0.10
2023-01-09T08:05:01.901Z,0.10
2023-01-09T08:09:04.900Z,0.10
2023-01-09T08:13:09.078Z,0.20
2023-01-09T08:17:11.984Z,0.25
2023-01-09T08:21:17.622Z,0.40
2023-01-09T08:25:20.757Z,0.50
2023-01-09T08:29:25.018Z,0.20
2023-01-09T08:33:28.019Z,0.25
2023-01-09T08:37:30.867Z,0.20
2023-01-09T08:41:51.160Z,0.28
2023-01-09T08:46:15.242Z,0.32
2023-01-09T08:50:18.032Z,0.47
2023-01-09T08:54:20.921Z,0.43
2023-01-09T08:58:23.813Z,0.20
2023-01-09T09:02:28.045Z,0.45
2023-01-09T09:06:30.963Z,0.22
2023-01-09T09:10:33.893Z,0.50
2023-01-09T09:14:54.057Z,0.20
2023-01-09T09:18:58.187Z,0.47
2023-01-09T09:23:01.149Z,0.22
2023-01-09T09:27:04.715Z,0.50
2023-01-09T09:31:08.194Z,0.40
2023-01-09T09:35:12.841Z,0.50
2023-01-09T09:39:15.734Z,0.88
2023-01-09T09:43:59.785Z,0.50
2023-01-09T09:48:14.270Z,0.52
2023-01-09T09:52:28.806Z,0.65
2023-01-09T09:56:35.209Z,0.40
2023-01-09T10:04:47.604Z,0.35
2023-01-09T10:08:57.258Z,0.65
2023-01-09T10:13:21.265Z,0.40
2023-01-09T10:17:37.356Z,0.65
2023-01-09T10:21:48.936Z,0.57
2023-01-09T10:25:57.769Z,0.70
2023-01-09T10:30:12.551Z,0.60
2023-01-09T10:34:31.235Z,0.38
2023-01-09T10:38:37.988Z,0.45
2023-01-09T10:42:47.438Z,0.32
2023-01-09T10:46:54.403Z,0.52
2023-01-09T10:50:57.809Z,0.75
2023-01-09T10:55:06.099Z,0.77
2023-01-09T10:59:11.298Z,0.82
2023-01-09T11:03:15.277Z,0.70
2023-01-09T11:07:21.741Z,1.00
2023-01-09T11:11:35.571Z,0.47
2023-01-09T11:15:39.778Z,0.52
2023-01-09T11:20:02.476Z,0.60
2023-01-09T11:24:27.813Z,0.82
2023-01-09T11:28:31.149Z,0.52
2023-01-09T11:32:36.139Z,0.68
2023-01-09T11:36:39.160Z,0.75
2023-01-09T11:40:49.345Z,0.75
2023-01-09T11:44:59.175Z,0.63
2023-01-09T11:49:06.341Z,0.80
2023-01-09T11:53:16.042Z,0.35
2023-01-09T11:57:19.311Z,0.70
2023-01-09T12:02:01.086Z,1.10
2023-01-09T12:06:17.040Z,0.90
2023-01-09T12:10:41.329Z,0.50
2023-01-09T12:14:54.546Z,0.50
2023-01-09T12:19:13.787Z,0.93
2023-01-09T12:23:39.044Z,0.30
2023-01-09T12:27:58.675Z,0.73
2023-01-09T12:32:26.701Z,0.82
2023-01-09T12:36:38.682Z,1.67
2023-01-09T12:40:55.097Z,1.00
2023-01-09T12:45:02.023Z,0.25
2023-01-09T12:49:21.565Z,1.52
2023-01-09T12:53:27.031Z,0.88
2023-01-09T12:57:35.951Z,1.02
2023-01-09T13:01:43.448Z,0.40
2023-01-09T13:05:50.099Z,0.70
2023-01-09T13:09:57.607Z,0.65
2023-01-09T13:14:06.552Z,0.70
2023-01-09T13:18:17.637Z,0.50
2023-01-09T13:22:21.222Z,0.68
2023-01-09T13:26:26.904Z,0.85
2023-01-09T13:30:46.221Z,0.68
2023-01-09T13:34:52.799Z,0.40
2023-01-09T13:38:57.131Z,0.40
2023-01-09T13:43:03.994Z,0.70
2023-01-09T13:47:17.664Z,0.68
2023-01-09T13:52:01.083Z,0.15
2023-01-09T13:56:07.865Z,0.88
2023-01-09T14:00:48.030Z,0.70
2023-01-09T14:04:52.428Z,0.90
2023-01-09T14:09:16.495Z,0.60
2023-01-09T14:13:22.812Z,0.73
2023-01-09T14:21:46.700Z,0.47
2023-01-09T14:25:50.799Z,0.63
2023-01-09T14:30:33.196Z,0.40
2023-01-09T14:34:38.256Z,0.60
2023-01-09T14:38:45.496Z,0.70
2023-01-09T14:42:51.604Z,0.57
2023-01-09T14:46:56.042Z,1.02
2023-01-09T14:51:00.060Z,0.50
2023-01-09T14:55:08.692Z,0.70
2023-01-09T14:59:13.552Z,0.93
2023-01-09T15:03:17.275Z,0.70
2023-01-09T15:07:22.845Z,1.10
2023-01-09T15:11:28.772Z,1.33
2023-01-09T15:15:31.802Z,0.80
2023-01-09T15:19:34.756Z,0.85
2023-01-09T15:23:37.630Z,0.73
2023-01-09T15:27:49.709Z,0.50
2023-01-09T15:31:55.535Z,0.70
2023-01-09T15:36:02.566Z,0.63
2023-01-09T15:40:09.054Z,0.60
2023-01-09T15:44:18.918Z,0.82
2023-01-09T15:48:26.748Z,0.85
2023-01-09T15:52:29.660Z,0.52
2023-01-09T15:56:33.440Z,0.93
2023-01-09T16:00:41.843Z,1.85
2023-01-09T16:04:44.847Z,1.63
2023-01-09T16:08:52.248Z,1.15
2023-01-09T16:12:55.333Z,1.10
2023-01-09T16:17:04.286Z,2.40
2023-01-09T16:21:25.258Z,1.90
2023-01-09T16:25:31.562Z,0.90
2023-01-09T16:33:46.548Z,3.03
2023-01-09T16:37:49.762Z,2.10
2023-01-09T16:42:10.656Z,1.15
2023-01-09T16:46:13.867Z,1.45
2023-01-09T16:50:18.253Z,2.00
2023-01-09T16:54:21.578Z,3.08
2023-01-09T16:58:27.856Z,1.17
2023-01-09T17:06:34.694Z,1.50
2023-01-09T17:10:37.570Z,2.33
2023-01-09T17:14:40.428Z,0.75
2023-01-09T17:18:43.629Z,0.65
2023-01-09T17:22:47.783Z,0.95
2023-01-09T17:27:05.846Z,1.27
2023-01-09T17:31:12.131Z,1.40
2023-01-09T17:39:19.533Z,1.10
2023-01-09T17:43:23.109Z,1.30
2023-01-09T17:47:25.923Z,1.63
2023-01-09T17:51:29.289Z,1.92
2023-01-09T17:55:34.772Z,2.25
2023-01-09T17:59:37.675Z,1.92
2023-01-09T18:03:40.587Z,1.30
2023-01-09T18:07:43.459Z,1.33
2023-01-09T18:11:48.245Z,1.30
2023-01-09T18:15:57.126Z,4.82
2023-01-09T18:19:59.942Z,2.58
2023-01-09T18:24:03.172Z,2.38
2023-01-09T18:28:07.678Z,2.75
2023-01-09T18:32:10.641Z,1.30
2023-01-09T18:36:13.779Z,1.80
2023-01-09T18:40:16.989Z,1.80
2023-01-09T18:44:22.031Z,2.45
2023-01-09T18:48:25.066Z,2.92
2023-01-09T18:52:27.873Z,3.40
2023-01-09T18:56:31.269Z,1.73
2023-01-09T19:00:35.523Z,1.70
2023-01-09T19:04:38.313Z,1.60
2023-01-09T19:08:41.213Z,1.35
2023-01-09T19:12:44.115Z,1.27
2023-01-09T19:16:48.604Z,1.20
2023-01-09T19:20:52.769Z,1.50
2023-01-09T19:24:55.789Z,1.70
2023-01-09T19:28:58.663Z,1.98
2023-01-09T19:33:02.874Z,1.20
2023-01-09T19:37:07.659Z,1.35
2023-01-09T19:41:14.321Z,1.20
2023-01-09T19:45:17.341Z,1.42
2023-01-09T19:49:21.604Z,0.95
2023-01-09T19:53:26.473Z,1.45
2023-01-09T19:57:29.545Z,1.50
2023-01-09T20:01:34.689Z,0.70
2023-01-09T20:05:38.927Z,1.00
2023-01-09T20:09:41.784Z,1.30
2023-01-09T20:13:45.096Z,0.98
2023-01-09T20:17:47.949Z,0.73
2023-01-09T20:21:52.243Z,0.80
2023-01-09T20:25:56.962Z,1.27
2023-01-09T20:30:00.765Z,0.73
2023-01-09T20:34:04.368Z,0.98
2023-01-09T20:38:08.738Z,1.00
2023-01-09T20:42:14.324Z,0.80
2023-01-09T20:46:17.603Z,0.80
2023-01-09T20:50:20.472Z,0.80
2023-01-09T20:54:25.102Z,0.63
2023-01-09T20:58:28.792Z,0.57
2023-01-09T21:02:31.772Z,0.50
2023-01-09T21:06:34.746Z,0.60
2023-01-09T21:10:39.036Z,1.20
2023-01-09T21:14:41.872Z,0.65
2023-01-09T21:18:45.046Z,0.80
2023-01-09T21:22:48.191Z,0.80
2023-01-09T21:26:52.383Z,0.77
2023-01-09T21:30:55.267Z,0.80
2023-01-09T21:35:03.130Z,1.20
2023-01-09T21:39:08.332Z,1.40
2023-01-09T21:43:38.618Z,1.00
2023-01-09T21:47:41.470Z,1.08
2023-01-09T21:51:44.736Z,0.88
2023-01-09T21:55:47.498Z,1.15
2023-01-09T21:59:51.686Z,1.17
2023-01-09T22:03:54.811Z,0.82
2023-01-09T22:07:57.724Z,1.10
2023-01-09T22:12:00.726Z,1.30
2023-01-09T22:16:06.965Z,0.85
2023-01-09T22:24:14.347Z,0.90
2023-01-09T22:28:17.721Z,0.77
2023-01-09T22:32:22.546Z,1.35
2023-01-09T22:36:26.227Z,1.08
2023-01-09T22:40:29.130Z,1.00
2023-01-09T22:44:31.977Z,1.40
2023-01-09T22:48:36.266Z,0.80
2023-01-09T22:52:39.335Z,1.00
2023-01-09T22:56:42.169Z,0.88
2023-01-09T23:00:45.266Z,1.27
2023-01-09T23:04:49.468Z,1.30
2023-01-09T23:08:53.779Z,1.55
2023-01-09T23:12:56.611Z,1.27
2023-01-09T23:16:59.495Z,1.40
2023-01-09T23:21:05.742Z,1.20
2023-01-09T23:25:09.760Z,1.40
2023-01-09T23:29:13.507Z,1.60
2023-01-09T23:33:17.536Z,1.23
2023-01-09T23:37:21.826Z,1.45
2023-01-09T23:41:44.971Z,1.48
2023-01-09T23:45:49.845Z,1.75
2023-01-09T23:49:52.807Z,1.33
2023-01-09T23:53:56.992Z,1.35
2023-01-09T23:57:59.929Z,1.10
